Hauptseite
METAR-TAF:

METAR-TAF

Flughäfen :

Flughafen Toulon-Hyères

Toulon, Frankreich

Breite: 43-06N, Länge: 006-09E, Höhe: 3 m

Beobachtung

Neuester Wetterbericht von vor 16 Minuten, um 18:30 UTC
Wind 10 kt aus Nordwest
Temperatur 13°C
Luftfeuchtigkeit 30%
Luftdruck 1016 hPa
Sichtweite 10 km oder mehr
keine Wolken unter 1500 m und keine Kumulonimbus oder Gewitterwolken

METAR: LFTH 181830Z AUTO 31010KT CAVOK 13/M04 Q1016 NOSIG

Zeit: 19:46 (18:46 UTC)

Prognose

Neuester Wetterbericht von vor 4 Stunden und 31 Minuten, um 14:15 UTC
Gültige Prognose vom 18 um 15 UTC bis 19 um 15 UTC
Wind 12 kt aus Nord/Nordwest
Sichtweite 10 km oder mehr
keine Wolken unter 1500 m und keine Kumulonimbus oder Gewitterwolken
Übergehend zu
vom 19 um 02 UTC bis 19 um 04 UTC
Wind 6 kt aus Nord/Nordwest
Zeitweise
vom 19 um 11 UTC bis 19 um 15 UTC
Leichtregen

TAF: LFTH 181415Z 1815/1915 33012KT CAVOK BECMG 1902/1904 34006KT TEMPO 1911/1915 -RA

Wetterbeobachtungen und Prognosen von mehr als 4000 Flughäfen (METAR und TAF Bericht).

Die verfügbaren Stationen werden durch gelbe und rote Markierungen auf der Karte dargestellt.

Führen Sie die Maus auf sie, um den Namen der Station zu sehen.

Darauf klicken, um die Beobachtung von Wetterbeobachtungen und Prognosen zu sehen.

Um die Karte zu ändern : klicken Sie auf den grünen Tasten mit einem schwarzen Kreuz Zum Vergrößern, auf den grünen Button mit einem Gedankenstrich zu verkleinern, oder auf die grünen Pfeile für benachbarte Karten.


METAR-TAF: